Time;durP1;ratioP1;P1;durP2;ratioP2;P2;SDS_P1;SDS_P2;PMS_P1;PMS_P2;Temp;Humidity;BMP_temperature;BMP_pressure;BME280_temperature;BME280_humidity;BME280_pressure;Samples;Min_cycle;Max_cycle;Signal;HPM_P1;HPM_P2
2023/12/01 00:02:16;;;;;;;23.87;10.37;;;-7.60;99.90;;;;;;4983111;28;20029;-56
2023/12/01 00:04:41;;;;;;;23.07;11.60;;;-7.60;99.90;;;;;;4978467;28;20447;-57
2023/12/01 00:07:07;;;;;;;20.07;9.73;;;-7.60;99.90;;;;;;4979525;28;20053;-56
2023/12/01 00:09:33;;;;;;;20.53;10.17;;;-7.70;99.90;;;;;;4981416;28;20045;-55
2023/12/01 00:11:58;;;;;;;20.53;9.40;;;-7.70;99.90;;;;;;4981231;28;20088;-57
2023/12/01 00:14:24;;;;;;;15.07;8.35;;;-7.70;99.90;;;;;;4983157;28;20030;-57
2023/12/01 00:16:49;;;;;;;24.07;10.33;;;-7.70;99.90;;;;;;4981055;28;20433;-57
2023/12/01 00:19:15;;;;;;;20.40;9.70;;;-7.80;99.90;;;;;;4981191;28;20042;-57
2023/12/01 00:21:40;;;;;;;16.70;7.70;;;-7.80;99.90;;;;;;4981153;28;20042;-56
2023/12/01 00:24:06;;;;;;;17.77;7.50;;;-7.80;99.90;;;;;;4980820;28;20026;-57
2023/12/01 00:26:31;;;;;;;15.07;7.80;;;-7.80;99.90;;;;;;4979835;28;20027;-57
2023/12/01 00:28:57;;;;;;;14.90;6.53;;;-7.90;99.90;;;;;;4982619;28;20026;-55
2023/12/01 00:31:23;;;;;;;21.17;8.20;;;-7.90;99.90;;;;;;4981090;28;20387;-55
2023/12/01 00:33:48;;;;;;;17.33;7.67;;;-7.90;99.90;;;;;;4980858;28;20030;-58
2023/12/01 00:36:14;;;;;;;18.33;7.23;;;-7.90;99.90;;;;;;4977396;28;20105;-56
2023/12/01 00:38:39;;;;;;;14.00;6.37;;;-7.90;99.90;;;;;;4978055;28;20042;-58
2023/12/01 00:41:05;;;;;;;13.97;7.23;;;-8.00;99.90;;;;;;4980787;28;20434;-56
2023/12/01 00:43:31;;;;;;;15.67;8.17;;;-8.00;99.90;;;;;;4982345;28;20049;-57
2023/12/01 00:45:56;;;;;;;19.37;7.17;;;-8.00;99.90;;;;;;4976403;28;20046;-55
2023/12/01 00:48:21;;;;;;;14.40;7.00;;;-8.00;99.90;;;;;;4980640;28;20160;-57
2023/12/01 00:50:47;;;;;;;14.23;6.57;;;-8.00;99.90;;;;;;4980624;28;20061;-55
2023/12/01 00:53:12;;;;;;;12.20;6.70;;;-8.00;99.90;;;;;;4980844;28;20010;-57
2023/12/01 00:55:39;;;;;;;12.83;5.77;;;-8.10;99.90;;;;;;4980487;28;20105;-55
2023/12/01 00:58:04;;;;;;;14.20;6.77;;;-8.10;99.90;;;;;;4981608;28;20029;-57
2023/12/01 01:00:31;;;;;;;15.10;5.93;;;-8.10;99.90;;;;;;4978196;28;20026;-55
2023/12/01 01:02:56;;;;;;;13.43;7.63;;;-8.10;99.90;;;;;;4980665;28;20042;-57
2023/12/01 01:05:22;;;;;;;13.00;7.10;;;-8.10;99.90;;;;;;4980533;28;20517;-57
2023/12/01 01:07:47;;;;;;;12.53;5.73;;;-8.20;99.90;;;;;;4976230;28;20398;-57
2023/12/01 01:10:13;;;;;;;14.40;6.57;;;-8.10;99.90;;;;;;4980235;28;20073;-57
2023/12/01 01:12:38;;;;;;;17.27;7.20;;;-8.20;99.90;;;;;;4980377;28;20034;-57
2023/12/01 01:15:04;;;;;;;13.43;6.73;;;-8.20;99.90;;;;;;4982337;28;20023;-59
2023/12/01 01:17:31;;;;;;;10.80;5.83;;;-8.20;99.90;;;;;;4980773;28;20054;-59
2023/12/01 01:19:58;;;;;;;10.80;5.33;;;-8.20;99.90;;;;;;4980392;28;20372;-56
2023/12/01 01:22:24;;;;;;;11.10;6.07;;;-8.30;99.90;;;;;;4980283;28;20042;-56
2023/12/01 01:24:50;;;;;;;12.87;5.83;;;-8.30;99.90;;;;;;4980279;28;20105;-57
2023/12/01 01:27:15;;;;;;;13.63;6.53;;;-8.30;99.90;;;;;;4980154;28;20105;-57
2023/12/01 01:29:41;;;;;;;16.80;8.60;;;-8.30;99.90;;;;;;4980066;28;20094;-54
2023/12/01 01:32:06;;;;;;;18.17;8.90;;;-8.40;99.90;;;;;;4980234;28;20674;-56
2023/12/01 01:34:32;;;;;;;18.30;9.13;;;-8.40;99.90;;;;;;4981244;28;20030;-55
2023/12/01 01:36:57;;;;;;;18.83;8.03;;;-8.40;99.90;;;;;;4976864;28;20081;-56
2023/12/01 01:39:22;;;;;;;15.93;7.77;;;-8.40;99.90;;;;;;4979990;28;20126;-57
2023/12/01 01:41:48;;;;;;;18.27;8.10;;;-8.40;99.90;;;;;;4979958;28;20109;-57
2023/12/01 01:44:13;;;;;;;20.33;8.77;;;-8.40;99.90;;;;;;4980011;28;20031;-56
2023/12/01 01:46:39;;;;;;;11.83;6.07;;;-8.40;99.90;;;;;;4982033;28;20052;-64
2023/12/01 01:49:05;;;;;;;16.23;7.43;;;-8.40;99.90;;;;;;4981428;28;20027;-64
2023/12/01 01:51:34;;;;;;;11.93;6.53;;;-8.40;99.90;;;;;;4979974;28;20034;-63
2023/12/01 01:53:59;;;;;;;16.20;6.23;;;-8.50;99.90;;;;;;4976057;28;20949;-64
2023/12/01 01:56:27;;;;;;;11.93;5.23;;;-8.50;99.90;;;;;;4979752;28;20117;-63
2023/12/01 01:58:52;;;;;;;16.13;7.47;;;-8.50;99.90;;;;;;4980065;28;20022;-63
2023/12/01 02:01:18;;;;;;;22.33;9.97;;;-8.50;99.90;;;;;;4979933;28;20465;-63
2023/12/01 02:03:44;;;;;;;29.90;11.77;;;-8.50;99.90;;;;;;4981865;28;20033;-64
2023/12/01 02:06:12;;;;;;;18.40;9.10;;;-8.50;99.90;;;;;;4980252;28;20034;-63
2023/12/01 02:08:37;;;;;;;15.73;6.93;;;-8.50;99.90;;;;;;4981082;28;20048;-64
2023/12/01 02:11:03;;;;;;;16.13;7.50;;;-8.50;99.90;;;;;;4983556;28;20026;-64
2023/12/01 02:13:29;;;;;;;15.17;6.73;;;-8.60;99.90;;;;;;4983327;28;20491;-64
2023/12/01 02:15:54;;;;;;;13.73;6.67;;;-8.60;99.90;;;;;;4982226;28;20041;-63
2023/12/01 02:18:30;;;;;;;15.90;6.40;;;-8.60;99.90;;;;;;4985396;28;20037;-65
2023/12/01 02:20:57;;;;;;;16.23;6.67;;;-8.60;99.90;;;;;;4980674;28;20035;-64
2023/12/01 02:23:22;;;;;;;13.43;5.93;;;-8.70;99.90;;;;;;4983169;28;20053;-63
2023/12/01 02:25:49;;;;;;;13.67;6.57;;;-8.70;99.90;;;;;;4983916;28;20604;-64
2023/12/01 02:28:15;;;;;;;14.07;6.57;;;-8.70;99.90;;;;;;4983217;28;20039;-63
2023/12/01 02:30:43;;;;;;;16.57;7.33;;;-8.70;99.90;;;;;;4983183;28;20581;-64
2023/12/01 02:33:14;;;;;;;14.40;5.73;;;-8.70;99.90;;;;;;4982777;28;20696;-63
2023/12/01 02:35:43;;;;;;;13.00;6.27;;;-8.70;99.90;;;;;;4981275;28;20028;-64
2023/12/01 02:38:08;;;;;;;16.23;6.13;;;-8.80;99.90;;;;;;4979805;28;20049;-64
2023/12/01 02:40:34;;;;;;;14.37;6.77;;;-8.80;99.90;;;;;;4982744;28;20526;-63
2023/12/01 02:42:59;;;;;;;15.83;7.67;;;-8.80;99.90;;;;;;4982836;28;20066;-63
2023/12/01 02:45:25;;;;;;;11.97;5.80;;;-8.80;99.90;;;;;;4983669;28;20054;-63
2023/12/01 02:47:50;;;;;;;10.93;5.13;;;-8.80;99.90;;;;;;4984716;28;20057;-64
2023/12/01 02:50:19;;;;;;;9.60;4.80;;;-8.80;99.90;;;;;;4998463;28;20026;-64
2023/12/01 02:52:44;;;;;;;10.23;5.07;;;-8.80;99.90;;;;;;4982883;28;20030;-63
2023/12/01 02:55:10;;;;;;;11.10;4.80;;;-8.80;99.90;;;;;;4978864;28;20491;-63
2023/12/01 02:57:37;;;;;;;10.33;4.63;;;-8.90;99.90;;;;;;4982800;28;20073;-63
2023/12/01 03:00:06;;;;;;;12.13;5.70;;;-8.90;99.90;;;;;;4982841;28;20026;-63
2023/12/01 03:02:34;;;;;;;17.40;7.67;;;-8.90;99.90;;;;;;4982494;28;20465;-63
2023/12/01 03:05:00;;;;;;;14.63;5.83;;;-8.90;99.90;;;;;;4983404;28;20061;-64
2023/12/01 03:07:26;;;;;;;14.43;6.10;;;-8.90;99.90;;;;;;4980605;28;20057;-63
2023/12/01 03:09:51;;;;;;;10.87;5.60;;;-8.90;99.90;;;;;;4982483;28;20018;-64
2023/12/01 03:12:16;;;;;;;11.67;5.73;;;-8.90;99.90;;;;;;4982606;28;20061;-64
2023/12/01 03:14:42;;;;;;;13.47;5.60;;;-8.90;99.90;;;;;;4978430;28;20137;-64
2023/12/01 03:17:08;;;;;;;8.90;5.03;;;-8.90;99.90;;;;;;4982438;28;20053;-63
2023/12/01 03:19:33;;;;;;;15.13;4.47;;;-9.00;99.90;;;;;;4983649;28;20038;-64
2023/12/01 03:21:59;;;;;;;9.83;4.43;;;-9.00;99.90;;;;;;4982048;28;20573;-63
2023/12/01 03:24:24;;;;;;;7.80;4.10;;;-9.10;99.90;;;;;;4982183;28;20038;-63
2023/12/01 03:26:50;;;;;;;8.77;4.27;;;-9.00;99.90;;;;;;4982312;28;20637;-64
2023/12/01 03:29:15;;;;;;;9.50;4.33;;;-9.00;99.90;;;;;;4982349;28;20035;-63
2023/12/01 03:31:41;;;;;;;7.83;4.03;;;-9.10;99.90;;;;;;4982223;28;20027;-62
2023/12/01 03:34:06;;;;;;;10.63;4.13;;;-9.10;99.90;;;;;;4984130;28;20104;-64
2023/12/01 03:36:32;;;;;;;6.73;3.23;;;-9.10;99.90;;;;;;4975714;28;20030;-63
2023/12/01 03:38:58;;;;;;;7.50;3.80;;;-9.10;99.90;;;;;;4981960;28;20026;-64
2023/12/01 03:41:23;;;;;;;7.27;3.13;;;-9.10;99.90;;;;;;4980271;28;20116;-62
2023/12/01 03:43:49;;;;;;;9.33;4.63;;;-9.10;99.90;;;;;;4981068;28;20026;-64
2023/12/01 03:46:14;;;;;;;7.50;3.70;;;-9.10;99.90;;;;;;4982205;28;20061;-65
2023/12/01 03:48:40;;;;;;;6.13;3.47;;;-9.10;99.90;;;;;;4981891;28;20058;-64
2023/12/01 03:51:09;;;;;;;7.97;3.87;;;-9.20;99.90;;;;;;4981747;28;20113;-57
2023/12/01 03:53:38;;;;;;;6.30;3.63;;;-9.20;99.90;;;;;;4982028;28;20503;-53
2023/12/01 03:56:04;;;;;;;11.37;4.00;;;-9.20;99.90;;;;;;4981748;28;20030;-64
2023/12/01 03:58:29;;;;;;;8.03;3.60;;;-9.20;99.90;;;;;;4981614;28;20038;-64
2023/12/01 04:00:55;;;;;;;8.53;3.63;;;-9.20;99.90;;;;;;4980127;28;20092;-65
2023/12/01 04:03:24;;;;;;;8.20;4.10;;;-9.20;99.90;;;;;;4979110;28;20514;-65
2023/12/01 04:05:52;;;;;;;8.47;3.47;;;-9.20;99.90;;;;;;4983410;28;20034;-64
2023/12/01 04:08:17;;;;;;;7.83;3.43;;;-9.20;99.90;;;;;;4998722;28;20490;-64
2023/12/01 04:10:43;;;;;;;9.93;4.43;;;-9.30;99.90;;;;;;4981417;28;20033;-64
2023/12/01 04:13:09;;;;;;;9.60;4.03;;;-9.30;99.90;;;;;;4981367;28;20407;-64
2023/12/01 04:15:36;;;;;;;8.17;3.47;;;-9.30;99.90;;;;;;4981314;28;20022;-64
2023/12/01 04:18:06;;;;;;;6.73;3.60;;;-9.30;99.90;;;;;;4981289;28;20053;-64
2023/12/01 04:20:35;;;;;;;8.47;3.60;;;-9.30;99.90;;;;;;4981231;28;20030;-64
2023/12/01 04:23:02;;;;;;;8.70;4.20;;;-9.30;99.90;;;;;;4980885;28;20022;-64
2023/12/01 04:25:29;;;;;;;10.00;4.30;;;-9.30;99.90;;;;;;4981198;28;20525;-64
2023/12/01 04:27:56;;;;;;;9.23;3.93;;;-9.30;99.90;;;;;;4982943;28;20030;-65
2023/12/01 04:30:23;;;;;;;7.63;4.10;;;-9.30;99.90;;;;;;4983091;28;20022;-65
2023/12/01 04:32:52;;;;;;;7.40;3.33;;;-9.30;99.90;;;;;;4980873;28;20509;-65
2023/12/01 04:35:19;;;;;;;8.07;3.57;;;-9.40;99.90;;;;;;4981244;28;20515;-65
2023/12/01 04:37:45;;;;;;;6.07;3.73;;;-9.40;99.90;;;;;;4974830;28;21028;-65
2023/12/01 04:40:17;;;;;;;7.40;4.10;;;-9.40;99.90;;;;;;4980933;28;20399;-65
2023/12/01 04:42:47;;;;;;;7.97;4.23;;;-9.30;99.90;;;;;;4979157;28;20034;-65
2023/12/01 04:45:15;;;;;;;8.80;4.83;;;-9.40;99.90;;;;;;4980319;28;20042;-65
2023/12/01 04:47:41;;;;;;;11.90;6.03;;;-9.30;99.90;;;;;;4980832;28;20030;-65
2023/12/01 04:50:12;;;;;;;14.53;6.70;;;-9.40;99.90;;;;;;4980856;28;20026;-65
2023/12/01 04:52:41;;;;;;;13.97;8.27;;;-9.30;99.90;;;;;;4980812;28;20034;-65
2023/12/01 04:55:09;;;;;;;14.47;7.30;;;-9.30;99.90;;;;;;4980809;28;20026;-64
2023/12/01 04:57:34;;;;;;;11.03;6.20;;;-9.30;99.90;;;;;;4980545;28;20026;-65
2023/12/01 05:00:00;;;;;;;12.50;6.30;;;-9.30;99.90;;;;;;4982533;28;20518;-65
2023/12/01 05:02:26;;;;;;;12.20;6.10;;;-9.30;99.90;;;;;;4977344;28;20105;-64
2023/12/01 05:04:51;;;;;;;11.30;6.00;;;-9.30;99.90;;;;;;4980525;28;20058;-65
2023/12/01 05:07:16;;;;;;;8.37;5.17;;;-9.30;99.90;;;;;;4980682;28;20035;-65
2023/12/01 05:09:42;;;;;;;13.43;6.07;;;-9.30;99.90;;;;;;4980479;28;20754;-65
2023/12/01 05:12:07;;;;;;;15.67;5.50;;;-9.30;99.90;;;;;;4979191;28;20030;-66
2023/12/01 05:14:33;;;;;;;11.33;5.10;;;-9.30;99.90;;;;;;4980683;28;20031;-65
2023/12/01 05:16:59;;;;;;;7.73;4.67;;;-9.20;99.90;;;;;;4982360;28;20034;-64
2023/12/01 05:19:25;;;;;;;9.97;5.37;;;-9.20;99.90;;;;;;4980874;28;20042;-64
2023/12/01 05:21:50;;;;;;;9.63;4.83;;;-9.20;99.90;;;;;;4980523;28;20026;-65
2023/12/01 05:24:16;;;;;;;9.77;4.17;;;-9.20;99.90;;;;;;4979030;28;20515;-64
2023/12/01 05:26:41;;;;;;;8.63;3.73;;;-9.10;99.90;;;;;;4979730;28;20030;-64
2023/12/01 05:29:13;;;;;;;8.30;4.63;;;-9.10;99.90;;;;;;4980299;28;20037;-64
2023/12/01 05:31:39;;;;;;;7.47;3.83;;;-9.10;99.90;;;;;;4980363;28;20077;-64
2023/12/01 05:34:05;;;;;;;11.03;4.87;;;-9.00;99.90;;;;;;4982400;28;20043;-66
2023/12/01 05:36:31;;;;;;;7.70;4.07;;;-9.00;99.90;;;;;;4974980;28;20118;-64
2023/12/01 05:38:57;;;;;;;6.27;3.50;;;-8.90;99.90;;;;;;4980309;28;20097;-65
2023/12/01 05:41:22;;;;;;;6.63;3.20;;;-8.90;99.90;;;;;;4980370;28;20038;-65
2023/12/01 05:43:48;;;;;;;10.13;4.73;;;-8.90;99.90;;;;;;4980093;28;20121;-66
2023/12/01 05:46:13;;;;;;;9.40;3.83;;;-8.80;99.90;;;;;;4980173;28;20061;-65
2023/12/01 05:48:39;;;;;;;9.53;4.10;;;-8.70;99.90;;;;;;4986006;28;20659;-65
2023/12/01 05:51:05;;;;;;;7.17;3.50;;;-8.70;99.90;;;;;;4984118;28;20037;-65
2023/12/01 05:53:34;;;;;;;7.90;3.60;;;-8.70;99.90;;;;;;4984039;28;20030;-65
2023/12/01 05:56:02;;;;;;;9.03;4.13;;;-8.70;99.90;;;;;;4983790;28;20560;-65
2023/12/01 05:58:28;;;;;;;8.50;4.30;;;-8.60;99.90;;;;;;4984073;28;20112;-65
2023/12/01 06:00:53;;;;;;;9.77;4.47;;;-8.60;99.90;;;;;;4983908;28;20117;-65
2023/12/01 06:03:19;;;;;;;7.17;3.80;;;-8.60;99.90;;;;;;4983737;28;20755;-65
2023/12/01 06:05:46;;;;;;;7.73;3.90;;;-8.60;99.90;;;;;;4981658;28;20022;-65
2023/12/01 06:08:12;;;;;;;9.73;3.93;;;-8.60;99.90;;;;;;4981833;28;20072;-65
2023/12/01 06:10:38;;;;;;;9.07;4.20;;;-8.60;99.90;;;;;;4983609;28;20168;-65
2023/12/01 06:13:04;;;;;;;7.70;4.23;;;-8.50;99.90;;;;;;4983969;28;20089;-65
2023/12/01 06:15:30;;;;;;;8.30;4.90;;;-8.50;99.90;;;;;;4983506;28;20022;-65
2023/12/01 06:18:00;;;;;;;8.20;4.10;;;-8.50;99.90;;;;;;4979396;28;20023;-65
2023/12/01 06:20:26;;;;;;;9.53;4.33;;;-8.50;99.90;;;;;;4980376;28;20394;-65
2023/12/01 06:23:05;;;;;;;7.77;4.60;;;-8.50;99.90;;;;;;4982702;28;20045;-64
2023/12/01 06:25:32;;;;;;;15.20;5.20;;;-8.50;99.90;;;;;;4983140;28;20027;-64
2023/12/01 06:28:01;;;;;;;12.53;5.47;;;-8.50;99.90;;;;;;4983322;28;20031;-64
2023/12/01 06:30:28;;;;;;;11.10;4.37;;;-8.50;99.90;;;;;;4983297;28;20069;-64
2023/12/01 06:32:53;;;;;;;11.80;4.83;;;-8.40;99.90;;;;;;4984852;28;20041;-64
2023/12/01 06:35:20;;;;;;;9.93;5.63;;;-8.40;99.90;;;;;;4983213;28;20234;-65
2023/12/01 06:37:46;;;;;;;8.87;4.50;;;-8.40;99.90;;;;;;4979939;28;20101;-64
2023/12/01 06:40:15;;;;;;;10.57;4.70;;;-8.40;99.90;;;;;;4982746;28;20529;-65
2023/12/01 06:42:49;;;;;;;8.73;4.70;;;-8.30;99.90;;;;;;4982734;28;20031;-65
2023/12/01 06:45:17;;;;;;;11.47;5.23;;;-8.30;99.90;;;;;;4979804;28;22699;-64
2023/12/01 06:47:46;;;;;;;11.57;5.90;;;-8.30;99.90;;;;;;4981714;28;20058;-64
2023/12/01 06:50:14;;;;;;;13.60;6.30;;;-8.40;99.90;;;;;;4982712;28;20018;-64
2023/12/01 06:52:44;;;;;;;10.70;5.63;;;-8.40;99.90;;;;;;4980509;28;20205;-64
2023/12/01 06:55:10;;;;;;;11.60;6.00;;;-8.40;99.90;;;;;;4981284;28;20483;-65
2023/12/01 06:57:43;;;;;;;10.60;5.63;;;-8.40;99.90;;;;;;4981627;28;20057;-65
2023/12/01 07:00:21;;;;;;;10.47;5.33;;;-8.40;99.90;;;;;;4982383;28;20122;-65
2023/12/01 07:02:48;;;;;;;13.10;5.87;;;-8.50;99.90;;;;;;4982373;28;20038;-64
2023/12/01 07:05:19;;;;;;;12.70;5.40;;;-8.50;99.90;;;;;;4977454;28;20505;-64
2023/12/01 07:07:45;;;;;;;11.23;5.27;;;-8.50;99.90;;;;;;4982434;28;20098;-64
2023/12/01 07:10:11;;;;;;;14.07;6.03;;;-8.50;99.90;;;;;;4982045;28;20053;-63
2023/12/01 07:12:36;;;;;;;13.37;6.37;;;-8.50;99.90;;;;;;4982055;28;20054;-63
2023/12/01 07:15:02;;;;;;;15.80;5.87;;;-8.50;99.90;;;;;;4984105;28;20037;-63
2023/12/01 07:17:29;;;;;;;13.10;5.73;;;-8.50;99.90;;;;;;4981843;28;20030;-63
2023/12/01 07:19:54;;;;;;;14.60;5.90;;;-8.40;99.90;;;;;;4982078;28;20033;-63
2023/12/01 07:22:22;;;;;;;15.53;6.20;;;-8.40;99.90;;;;;;4981921;28;20494;-64
2023/12/01 07:24:48;;;;;;;11.87;5.83;;;-8.40;99.90;;;;;;4981831;28;20437;-63
2023/12/01 07:27:14;;;;;;;13.10;6.40;;;-8.40;99.90;;;;;;4981771;28;20111;-64
2023/12/01 07:29:39;;;;;;;15.50;6.30;;;-8.30;99.90;;;;;;4983579;28;20018;-63
2023/12/01 07:32:06;;;;;;;13.30;6.10;;;-8.30;99.90;;;;;;4981930;28;20030;-64
2023/12/01 07:34:32;;;;;;;12.00;5.73;;;-8.30;99.90;;;;;;4981641;28;20422;-63
2023/12/01 07:36:58;;;;;;;10.97;5.60;;;-8.20;99.90;;;;;;4978482;28;20153;-64
2023/12/01 07:39:23;;;;;;;11.67;5.80;;;-8.20;99.90;;;;;;4980338;28;20018;-63
2023/12/01 07:41:50;;;;;;;12.03;5.03;;;-8.20;99.90;;;;;;4981327;28;20050;-64
2023/12/01 07:44:15;;;;;;;16.87;6.37;;;-8.10;99.90;;;;;;4977350;28;20041;-64
2023/12/01 07:46:41;;;;;;;17.17;6.67;;;-8.10;99.90;;;;;;4983028;28;20046;-63
2023/12/01 07:49:11;;;;;;;14.40;6.67;;;-8.00;99.90;;;;;;4981414;28;20145;-64
2023/12/01 07:51:37;;;;;;;20.13;7.97;;;-8.00;99.90;;;;;;4981253;28;20031;-64
2023/12/01 07:54:02;;;;;;;12.97;6.50;;;-7.90;99.90;;;;;;4981205;28;20022;-64
2023/12/01 07:56:28;;;;;;;17.77;6.33;;;-7.90;99.90;;;;;;4981127;28;20084;-63
2023/12/01 07:58:53;;;;;;;14.77;6.83;;;-7.90;99.90;;;;;;4981145;28;20065;-63
2023/12/01 08:01:19;;;;;;;11.50;6.90;;;-7.80;99.90;;;;;;4982804;28;20042;-64
2023/12/01 08:03:46;;;;;;;19.80;7.83;;;-7.70;99.90;;;;;;4977967;28;20409;-64
2023/12/01 08:06:13;;;;;;;14.87;6.87;;;-7.70;99.90;;;;;;4980425;28;20023;-64
2023/12/01 08:08:39;;;;;;;10.97;5.90;;;-7.70;99.90;;;;;;4980887;28;20056;-64
2023/12/01 08:11:05;;;;;;;14.93;6.60;;;-7.70;99.90;;;;;;4980896;28;20030;-63
2023/12/01 08:13:30;;;;;;;17.20;8.27;;;-7.60;99.90;;;;;;4979774;28;20122;-64
2023/12/01 08:15:56;;;;;;;13.70;6.13;;;-7.60;99.90;;;;;;4980878;28;20077;-63
2023/12/01 08:18:21;;;;;;;11.48;5.13;;;-7.60;99.90;;;;;;4982748;28;20121;-64
2023/12/01 08:20:47;;;;;;;14.00;5.50;;;-7.60;99.90;;;;;;4980300;28;20042;-64
2023/12/01 08:23:13;;;;;;;11.40;5.47;;;-7.50;99.90;;;;;;4980631;28;20088;-65
2023/12/01 08:25:39;;;;;;;10.73;4.97;;;-7.50;99.90;;;;;;4978899;28;20105;-64
2023/12/01 08:28:05;;;;;;;12.30;5.47;;;-7.40;99.90;;;;;;4979896;28;20273;-64
2023/12/01 08:30:30;;;;;;;16.42;6.72;;;-7.50;99.90;;;;;;4980449;28;20430;-64
2023/12/01 08:32:56;;;;;;;11.70;5.27;;;-7.50;99.90;;;;;;4980626;28;20610;-63
2023/12/01 08:35:22;;;;;;;14.07;5.78;;;-7.40;99.90;;;;;;4982486;28;20046;-64
2023/12/01 08:37:47;;;;;;;14.00;6.00;;;-7.40;99.90;;;;;;4976717;28;20041;-64
2023/12/01 08:40:13;;;;;;;13.90;6.38;;;-7.30;99.90;;;;;;4980355;28;20515;-64
2023/12/01 08:42:40;;;;;;;12.85;5.43;;;-7.30;99.90;;;;;;4980050;28;20560;-64
2023/12/01 08:45:07;;;;;;;16.88;7.00;;;-7.30;99.90;;;;;;4980304;28;20517;-63
2023/12/01 08:47:32;;;;;;;13.93;6.03;;;-7.30;99.90;;;;;;4980266;28;20014;-63
2023/12/01 08:49:58;;;;;;;8.50;5.22;;;-7.20;99.90;;;;;;4982195;28;20018;-64
2023/12/01 08:52:23;;;;;;;12.70;6.00;;;-7.20;99.90;;;;;;4980428;28;20445;-63
2023/12/01 08:54:49;;;;;;;14.73;6.22;;;-7.10;99.90;;;;;;4980187;28;20023;-64
2023/12/01 08:57:14;;;;;;;15.73;6.03;;;-7.00;99.90;;;;;;4980349;28;20023;-64
2023/12/01 08:59:40;;;;;;;15.77;7.07;;;-7.00;99.90;;;;;;4980187;28;20113;-63
2023/12/01 09:02:06;;;;;;;13.63;6.10;;;-6.90;99.90;;;;;;4980079;28;20022;-63
2023/12/01 09:04:31;;;;;;;15.63;7.18;;;-6.80;99.90;;;;;;4982045;28;20034;-64
2023/12/01 09:06:57;;;;;;;13.27;6.55;;;-6.70;99.90;;;;;;4976039;28;20033;-64
2023/12/01 09:09:22;;;;;;;15.82;7.72;;;-6.60;99.90;;;;;;4980076;28;20045;-64
2023/12/01 09:11:47;;;;;;;12.38;6.03;;;-6.60;99.90;;;;;;4980003;28;20106;-64
2023/12/01 09:14:13;;;;;;;12.25;6.60;;;-6.50;99.90;;;;;;4980051;28;20478;-64
2023/12/01 09:16:38;;;;;;;20.38;8.50;;;-6.40;99.90;;;;;;4979935;28;20113;-64
2023/12/01 09:19:04;;;;;;;17.10;7.60;;;-6.30;99.90;;;;;;4981041;28;20022;-64
2023/12/01 09:21:29;;;;;;;18.70;7.95;;;-6.30;99.90;;;;;;4979791;28;20026;-64
2023/12/01 09:23:56;;;;;;;57.65;16.50;;;-6.20;99.90;;;;;;4979902;28;20380;-64
2023/12/01 09:26:21;;;;;;;37.28;12.52;;;-6.00;99.90;;;;;;4979687;28;20022;-64
2023/12/01 09:28:50;;;;;;;28.17;11.20;;;-5.90;99.90;;;;;;4979808;28;20034;-64
2023/12/01 09:31:16;;;;;;;23.42;10.75;;;-5.70;99.90;;;;;;4976558;28;20051;-64
2023/12/01 09:33:42;;;;;;;22.48;11.00;;;-5.50;99.90;;;;;;4979978;28;20616;-64
2023/12/01 09:36:08;;;;;;;23.30;10.75;;;-5.30;99.90;;;;;;4981566;28;20457;-64
2023/12/01 09:38:35;;;;;;;15.65;8.90;;;-5.10;99.90;;;;;;4976600;28;20395;-63
2023/12/01 09:41:01;;;;;;;20.13;9.88;;;-4.90;99.90;;;;;;4979879;28;20897;-63
2023/12/01 09:43:29;;;;;;;21.05;11.02;;;-4.80;99.90;;;;;;4979716;28;20567;-63
2023/12/01 09:45:55;;;;;;;14.13;8.02;;;-4.60;99.90;;;;;;4979550;28;20038;-63
2023/12/01 09:48:20;;;;;;;17.38;8.32;;;-4.50;99.90;;;;;;4980046;28;20646;-64
2023/12/01 09:50:47;;;;;;;18.30;9.30;;;-4.40;99.90;;;;;;4979730;28;20112;-63
2023/12/01 09:53:12;;;;;;;17.02;9.27;;;-4.20;99.90;;;;;;4975712;28;20258;-63
2023/12/01 09:55:38;;;;;;;15.50;7.72;;;-4.10;99.90;;;;;;4981433;28;20034;-52
2023/12/01 09:58:04;;;;;;;21.85;9.27;;;-4.00;99.90;;;;;;4979815;28;20026;-56
2023/12/01 10:00:29;;;;;;;17.08;8.23;;;-3.90;99.90;;;;;;4979523;28;20030;-59
2023/12/01 10:02:55;;;;;;;17.88;8.45;;;-3.80;99.90;;;;;;4979390;28;20042;-58
2023/12/01 10:05:21;;;;;;;18.55;8.65;;;-3.70;99.90;;;;;;4979789;28;20034;-59
2023/12/01 10:07:49;;;;;;;18.63;8.38;;;-3.60;99.90;;;;;;4979303;28;20113;-58
2023/12/01 10:10:26;;;;;;;13.40;6.85;;;-3.60;99.90;;;;;;4981050;28;20355;-57
2023/12/01 10:13:06;;;;;;;12.98;7.03;;;-3.50;99.90;;;;;;4972864;28;20015;-58
2023/12/01 10:15:33;;;;;;;14.70;7.18;;;-3.40;99.90;;;;;;4979528;28;20104;-57
2023/12/01 10:18:16;;;;;;;13.43;6.93;;;-3.30;99.90;;;;;;4979307;28;20117;-59
2023/12/01 10:20:54;;;;;;;17.55;6.88;;;-3.20;99.90;;;;;;4979654;28;20038;-58
2023/12/01 10:23:20;;;;;;;14.05;7.32;;;-3.10;99.90;;;;;;4980612;28;20307;-58
2023/12/01 10:25:50;;;;;;;12.27;5.93;;;-3.00;99.90;;;;;;4977157;28;20026;-59
2023/12/01 10:28:17;;;;;;;15.50;5.85;;;-3.00;99.90;;;;;;4977063;28;20121;-58
2023/12/01 10:30:53;;;;;;;10.90;5.78;;;-2.90;99.90;;;;;;4982153;28;20027;-59
2023/12/01 10:33:22;;;;;;;12.25;5.70;;;-2.90;99.90;;;;;;4984568;28;20109;-59
2023/12/01 10:36:05;;;;;;;14.82;6.50;;;-2.80;99.90;;;;;;4982209;28;20391;-58
2023/12/01 10:38:33;;;;;;;16.05;6.97;;;-2.80;99.90;;;;;;4976857;28;20034;-59
2023/12/01 10:40:59;;;;;;;14.10;6.32;;;-2.70;99.90;;;;;;4982536;28;20058;-59
2023/12/01 10:43:26;;;;;;;14.93;7.28;;;-2.70;99.90;;;;;;4984264;28;20046;-58
2023/12/01 10:45:52;;;;;;;15.82;8.07;;;-2.60;99.90;;;;;;4980486;28;20042;-58
2023/12/01 10:48:19;;;;;;;11.00;6.10;;;-2.60;99.90;;;;;;4982528;28;20038;-59
2023/12/01 10:50:49;;;;;;;11.45;5.82;;;-2.50;99.90;;;;;;4982099;28;20022;-58
2023/12/01 10:53:15;;;;;;;17.95;6.85;;;-2.40;99.90;;;;;;4981975;28;20096;-58
2023/12/01 10:55:48;;;;;;;15.80;7.43;;;-2.40;99.90;;;;;;4982050;28;20037;-59
2023/12/01 10:58:21;;;;;;;18.85;8.02;;;-2.40;99.90;;;;;;4982150;28;20031;-57
2023/12/01 11:00:52;;;;;;;11.93;6.47;;;-2.30;99.90;;;;;;4981903;28;20018;-59
2023/12/01 11:03:20;;;;;;;12.65;7.18;;;-2.30;99.90;;;;;;4982021;28;20490;-59
2023/12/01 11:05:48;;;;;;;13.45;6.43;;;-2.30;99.90;;;;;;4981760;28;20494;-59
2023/12/01 11:08:40;;;;;;;14.48;6.32;;;-2.20;99.90;;;;;;4981962;28;20030;-57
2023/12/01 11:11:32;;;;;;;13.73;6.45;;;-2.20;99.90;;;;;;4978879;28;20026;-57
2023/12/01 11:14:04;;;;;;;16.23;7.32;;;-2.20;99.90;;;;;;4982222;28;20030;-58
2023/12/01 11:16:31;;;;;;;16.45;7.63;;;-2.20;99.90;;;;;;4982091;28;20022;-59
2023/12/01 11:18:58;;;;;;;13.52;6.57;;;-2.20;99.90;;;;;;4981117;28;20077;-58
2023/12/01 11:21:23;;;;;;;14.23;6.72;;;-2.20;99.90;;;;;;4976796;28;20533;-58
2023/12/01 11:23:49;;;;;;;13.95;6.30;;;-2.20;99.90;;;;;;4977737;28;20027;-57
2023/12/01 11:26:16;;;;;;;12.13;6.03;;;-2.10;99.90;;;;;;4979574;28;20030;-57
2023/12/01 11:31:08;;;;;;;9.98;5.43;;;-2.10;99.90;;;;;;4981560;28;20121;-58
2023/12/01 11:33:45;;;;;;;15.52;7.82;;;-2.10;99.90;;;;;;4975272;28;20034;-59
2023/12/01 11:36:29;;;;;;;12.95;6.22;;;-2.00;99.90;;;;;;4974307;28;20027;-58
2023/12/01 11:41:42;;;;;;;13.90;6.35;;;-2.10;99.90;;;;;;4976768;28;20038;-57
2023/12/01 11:44:14;;;;;;;15.40;6.93;;;-2.00;99.90;;;;;;4980375;28;20096;-54
2023/12/01 11:46:40;;;;;;;14.48;8.15;;;-2.00;99.90;;;;;;4975422;28;20038;-58
2023/12/01 11:49:06;;;;;;;16.13;7.38;;;-1.90;99.90;;;;;;4977688;28;20035;-57
2023/12/01 11:51:32;;;;;;;14.52;7.55;;;-1.90;99.90;;;;;;4977391;28;20042;-58
2023/12/01 11:53:58;;;;;;;13.32;5.97;;;-1.90;99.90;;;;;;4973971;28;20030;-58
2023/12/01 11:56:27;;;;;;;14.65;7.78;;;-1.90;99.90;;;;;;4976771;28;20052;-58
2023/12/01 11:58:53;;;;;;;17.67;7.63;;;-1.90;99.90;;;;;;4977112;28;20637;-59
2023/12/01 12:01:19;;;;;;;16.80;8.43;;;-1.90;99.90;;;;;;4977436;28;20038;-58
2023/12/01 12:03:54;;;;;;;12.93;6.88;;;-2.00;99.90;;;;;;4979483;28;20136;-59
2023/12/01 12:06:21;;;;;;;13.82;7.13;;;-1.90;99.90;;;;;;4979316;28;20038;-59
2023/12/01 12:08:47;;;;;;;11.32;6.45;;;-1.90;99.90;;;;;;4975428;28;20502;-59
2023/12/01 12:11:13;;;;;;;14.02;6.60;;;-1.90;99.90;;;;;;4977801;28;20038;-58
2023/12/01 12:13:39;;;;;;;12.57;5.85;;;-1.90;99.90;;;;;;4977470;28;20027;-56
2023/12/01 12:16:05;;;;;;;14.52;6.47;;;-1.90;99.90;;;;;;4977381;28;20037;-59
2023/12/01 12:18:31;;;;;;;10.95;5.97;;;-1.90;99.90;;;;;;4976588;28;20042;-58
2023/12/01 12:21:04;;;;;;;11.45;6.05;;;-1.90;99.90;;;;;;4977296;28;20120;-57
2023/12/01 12:23:31;;;;;;;12.93;6.43;;;-1.90;99.90;;;;;;4977071;28;20058;-58
2023/12/01 12:26:24;;;;;;;10.10;5.50;;;-1.90;99.90;;;;;;4973723;28;20038;-58
2023/12/01 12:28:56;;;;;;;13.75;6.45;;;-1.90;99.90;;;;;;4977450;28;20041;-59
2023/12/01 12:31:26;;;;;;;15.15;7.40;;;-1.90;99.90;;;;;;4971365;28;20033;-57
2023/12/01 12:33:57;;;;;;;13.77;7.15;;;-1.90;99.90;;;;;;4976390;28;20062;-56
2023/12/01 12:36:26;;;;;;;14.43;7.28;;;-1.90;99.90;;;;;;4977022;28;20490;-58
2023/12/01 12:38:52;;;;;;;12.88;6.82;;;-1.90;99.90;;;;;;4972248;28;20022;-57
2023/12/01 12:41:23;;;;;;;12.73;6.65;;;-1.90;99.90;;;;;;4976926;28;20046;-58
2023/12/01 12:43:56;;;;;;;11.80;5.85;;;-1.90;99.90;;;;;;4979191;28;20121;-58